Terminal Aerodrome Forecast
Issued by NWS Pocatello, ID

Home | Current Version | Previous Version | Text Only | Print | Product List | Glossary On
Versions: 1 2 3 4 5 6 7 8 9 10 11 12 13 14 15 16 17 18 19 20 21 22 23
000
FTUS45 KPIH 261300 AAB
TAFIDA
TAF AMD
KIDA 261304Z 2613/2712 VRB03KT 2SM BR SCT005 SCT070
      TEMPO 2613/2616 1/2SM FZFG VV002
     FM261600 VRB05KT 6SM BR FEW005 SCT050
     FM262100 25006KT P6SM SCT050
     FM270400 22005KT P6SM SKC
      TEMPO 2710/2712 3SM BR BKN004=

USA.gov is the U.S. government's official web portal to all federal, state and local government web resources and services.